EPRZ/RZE METAR and TAF weather

Enter ICAO airport designator
Station Type Date Time Source
EPRZ METAR 2021/04/18 03:00 UTC NOAA

EPRZ 180300Z 29002KT 3000 BR BKN033 02/02 Q1018


Station Type Date Time Source
EPRZ Decoded METAR 2021/04/18 03:00 UTC NOAA

Rzeszow-Jasionka, Poland (EPRZ) 50-06N 022-03E 202M
Apr 17, 2021 - 11:00 PM EDT / 2021.04.18 0300 UTC
Wind: from the WNW (290 degrees) at 2 MPH (2 KT):0
Visibility: 1 mile(s):0
Sky conditions: mostly cloudy
Weather: mist
Temperature: 35 F (2 C)
Dew Point: 35 F (2 C)
Relative Humidity: 100%
Pressure (altimeter): 30.06 in. Hg (1018 hPa)
ob: EPRZ 180300Z 29002KT 3000 BR BKN033 02/02 Q1018
cycle: 3

Station Type Date Time Source
EPRZ TAF 2021/04/17 18:33 UTC NOAA

TAF EPRZ 171730Z 1718/1818 30010KT 9999 FEW020
BECMG 1718/1720 VRB02KT
TEMPO 1720/1807 3000 BR BKN014
BECMG 1806/1809 09010KT

Example: see airport list